sensor_id;sensor_type;location;lat;lon;timestamp;temperature;humidity
34833;DHT22;55941;50.800;4.342;2023-04-01T00:00:54;10.00;99.90
34833;DHT22;55941;50.800;4.342;2023-04-01T00:03:22;10.10;99.90
34833;DHT22;55941;50.800;4.342;2023-04-01T00:05:48;10.20;99.90
34833;DHT22;55941;50.800;4.342;2023-04-01T00:08:15;10.10;99.90
34833;DHT22;55941;50.800;4.342;2023-04-01T00:10:40;10.20;99.90
34833;DHT22;55941;50.800;4.342;2023-04-01T00:13:06;10.10;99.90
34833;DHT22;55941;50.800;4.342;2023-04-01T00:15:33;10.10;99.90
34833;DHT22;55941;50.800;4.342;2023-04-01T00:17:58;10.20;99.90
34833;DHT22;55941;50.800;4.342;2023-04-01T00:20:24;10.10;99.90
34833;DHT22;55941;50.800;4.342;2023-04-01T00:22:50;10.10;99.90
34833;DHT22;55941;50.800;4.342;2023-04-01T00:25:16;10.10;99.90
34833;DHT22;55941;50.800;4.342;2023-04-01T00:27:43;10.00;99.90
34833;DHT22;55941;50.800;4.342;2023-04-01T00:30:09;10.00;99.90
34833;DHT22;55941;50.800;4.342;2023-04-01T00:32:35;10.10;99.90
34833;DHT22;55941;50.800;4.342;2023-04-01T00:35:02;10.10;99.90
34833;DHT22;55941;50.800;4.342;2023-04-01T00:37:28;10.00;99.90
34833;DHT22;55941;50.800;4.342;2023-04-01T00:39:54;10.00;99.90
34833;DHT22;55941;50.800;4.342;2023-04-01T00:42:20;10.00;99.90
34833;DHT22;55941;50.800;4.342;2023-04-01T00:44:55;9.90;99.90
34833;DHT22;55941;50.800;4.342;2023-04-01T00:47:22;9.90;99.90
34833;DHT22;55941;50.800;4.342;2023-04-01T00:49:51;9.90;99.90
34833;DHT22;55941;50.800;4.342;2023-04-01T00:52:21;10.00;99.90
34833;DHT22;55941;50.800;4.342;2023-04-01T00:54:54;10.00;99.90
34833;DHT22;55941;50.800;4.342;2023-04-01T00:57:29;10.10;99.90
34833;DHT22;55941;50.800;4.342;2023-04-01T00:59:56;10.10;99.90
34833;DHT22;55941;50.800;4.342;2023-04-01T01:02:23;10.10;99.90
34833;DHT22;55941;50.800;4.342;2023-04-01T01:04:49;10.10;99.90
34833;DHT22;55941;50.800;4.342;2023-04-01T01:07:44;10.10;99.90
34833;DHT22;55941;50.800;4.342;2023-04-01T01:10:24;10.10;99.90
34833;DHT22;55941;50.800;4.342;2023-04-01T01:12:56;10.10;99.90
34833;DHT22;55941;50.800;4.342;2023-04-01T01:18:24;10.20;99.90
34833;DHT22;55941;50.800;4.342;2023-04-01T01:27:01;10.20;99.90
34833;DHT22;55941;50.800;4.342;2023-04-01T01:35:40;10.20;99.90
34833;DHT22;55941;50.800;4.342;2023-04-01T01:38:18;10.20;99.90
34833;DHT22;55941;50.800;4.342;2023-04-01T01:40:49;10.20;99.90
34833;DHT22;55941;50.800;4.342;2023-04-01T01:43:21;10.30;99.90
34833;DHT22;55941;50.800;4.342;2023-04-01T01:45:52;10.20;99.90
34833;DHT22;55941;50.800;4.342;2023-04-01T01:48:19;10.20;99.90
34833;DHT22;55941;50.800;4.342;2023-04-01T01:50:46;10.20;99.90
34833;DHT22;55941;50.800;4.342;2023-04-01T01:53:13;10.20;99.90
34833;DHT22;55941;50.800;4.342;2023-04-01T01:55:42;10.10;99.90
34833;DHT22;55941;50.800;4.342;2023-04-01T01:58:17;10.10;99.90
34833;DHT22;55941;50.800;4.342;2023-04-01T02:00:50;10.10;99.90
34833;DHT22;55941;50.800;4.342;2023-04-01T02:03:16;10.20;99.90
34833;DHT22;55941;50.800;4.342;2023-04-01T02:05:44;10.20;99.90
34833;DHT22;55941;50.800;4.342;2023-04-01T02:08:12;10.00;99.90
34833;DHT22;55941;50.800;4.342;2023-04-01T02:10:41;10.10;99.90
34833;DHT22;55941;50.800;4.342;2023-04-01T02:13:15;10.30;99.90
34833;DHT22;55941;50.800;4.342;2023-04-01T02:15:47;10.10;99.90
34833;DHT22;55941;50.800;4.342;2023-04-01T02:18:15;10.20;99.90
34833;DHT22;55941;50.800;4.342;2023-04-01T02:20:44;10.20;99.90
34833;DHT22;55941;50.800;4.342;2023-04-01T02:23:10;10.10;99.90
34833;DHT22;55941;50.800;4.342;2023-04-01T02:25:37;10.20;99.90
34833;DHT22;55941;50.800;4.342;2023-04-01T02:28:06;10.30;99.90
34833;DHT22;55941;50.800;4.342;2023-04-01T02:30:35;10.30;99.90
34833;DHT22;55941;50.800;4.342;2023-04-01T02:33:02;10.20;99.90
34833;DHT22;55941;50.800;4.342;2023-04-01T02:35:28;10.10;99.90
34833;DHT22;55941;50.800;4.342;2023-04-01T02:37:55;10.20;99.90
34833;DHT22;55941;50.800;4.342;2023-04-01T02:40:21;10.10;99.90
34833;DHT22;55941;50.800;4.342;2023-04-01T02:42:47;10.20;99.90
34833;DHT22;55941;50.800;4.342;2023-04-01T02:45:14;10.20;99.90
34833;DHT22;55941;50.800;4.342;2023-04-01T02:47:40;10.20;99.90
34833;DHT22;55941;50.800;4.342;2023-04-01T02:50:06;10.20;99.90
34833;DHT22;55941;50.800;4.342;2023-04-01T02:52:33;10.20;99.90
34833;DHT22;55941;50.800;4.342;2023-04-01T02:54:59;10.40;99.90
34833;DHT22;55941;50.800;4.342;2023-04-01T02:57:25;10.40;99.90
34833;DHT22;55941;50.800;4.342;2023-04-01T02:59:51;10.40;99.90
34833;DHT22;55941;50.800;4.342;2023-04-01T03:02:17;10.30;99.90
34833;DHT22;55941;50.800;4.342;2023-04-01T03:04:43;10.40;99.90
34833;DHT22;55941;50.800;4.342;2023-04-01T03:07:09;10.20;99.90
34833;DHT22;55941;50.800;4.342;2023-04-01T03:09:38;10.30;99.90
34833;DHT22;55941;50.800;4.342;2023-04-01T03:12:05;10.20;99.90
34833;DHT22;55941;50.800;4.342;2023-04-01T03:14:31;10.20;99.90
34833;DHT22;55941;50.800;4.342;2023-04-01T03:16:56;10.30;99.90
34833;DHT22;55941;50.800;4.342;2023-04-01T03:19:22;10.30;99.90
34833;DHT22;55941;50.800;4.342;2023-04-01T03:21:48;10.20;99.90
34833;DHT22;55941;50.800;4.342;2023-04-01T03:24:14;10.30;99.90
34833;DHT22;55941;50.800;4.342;2023-04-01T03:26:39;10.20;99.90
34833;DHT22;55941;50.800;4.342;2023-04-01T03:29:05;10.20;99.90
34833;DHT22;55941;50.800;4.342;2023-04-01T03:31:31;10.10;99.90
34833;DHT22;55941;50.800;4.342;2023-04-01T03:33:57;10.00;99.90
34833;DHT22;55941;50.800;4.342;2023-04-01T03:36:22;10.10;99.90
34833;DHT22;55941;50.800;4.342;2023-04-01T03:38:48;10.00;99.90
34833;DHT22;55941;50.800;4.342;2023-04-01T03:41:15;10.00;99.90
34833;DHT22;55941;50.800;4.342;2023-04-01T03:43:42;10.10;99.90
34833;DHT22;55941;50.800;4.342;2023-04-01T03:46:08;10.00;99.90
34833;DHT22;55941;50.800;4.342;2023-04-01T03:48:33;10.00;99.90
34833;DHT22;55941;50.800;4.342;2023-04-01T03:50:59;9.90;99.90
34833;DHT22;55941;50.800;4.342;2023-04-01T03:53:25;10.00;99.90
34833;DHT22;55941;50.800;4.342;2023-04-01T03:55:52;10.00;99.90
34833;DHT22;55941;50.800;4.342;2023-04-01T03:58:18;10.00;99.90
34833;DHT22;55941;50.800;4.342;2023-04-01T04:00:44;10.00;99.90
34833;DHT22;55941;50.800;4.342;2023-04-01T04:03:09;10.00;99.90
34833;DHT22;55941;50.800;4.342;2023-04-01T04:05:35;10.10;99.90
34833;DHT22;55941;50.800;4.342;2023-04-01T04:08:01;10.20;99.90
34833;DHT22;55941;50.800;4.342;2023-04-01T04:10:27;10.10;99.90
34833;DHT22;55941;50.800;4.342;2023-04-01T04:12:54;10.10;99.90
34833;DHT22;55941;50.800;4.342;2023-04-01T04:15:21;10.20;99.90
34833;DHT22;55941;50.800;4.342;2023-04-01T04:17:47;10.00;99.90
34833;DHT22;55941;50.800;4.342;2023-04-01T04:20:14;10.10;99.90
34833;DHT22;55941;50.800;4.342;2023-04-01T04:22:40;10.00;99.90
34833;DHT22;55941;50.800;4.342;2023-04-01T04:25:06;10.00;99.90
34833;DHT22;55941;50.800;4.342;2023-04-01T04:27:32;10.10;99.90
34833;DHT22;55941;50.800;4.342;2023-04-01T04:29:58;10.10;99.90
34833;DHT22;55941;50.800;4.342;2023-04-01T04:32:24;10.10;99.90
34833;DHT22;55941;50.800;4.342;2023-04-01T04:34:50;10.00;99.90
34833;DHT22;55941;50.800;4.342;2023-04-01T04:37:16;10.10;99.90
34833;DHT22;55941;50.800;4.342;2023-04-01T04:39:42;10.00;99.90
34833;DHT22;55941;50.800;4.342;2023-04-01T04:42:08;9.90;99.90
34833;DHT22;55941;50.800;4.342;2023-04-01T04:44:34;10.10;99.90
34833;DHT22;55941;50.800;4.342;2023-04-01T04:47:00;10.10;99.90
34833;DHT22;55941;50.800;4.342;2023-04-01T04:49:26;10.20;99.90
34833;DHT22;55941;50.800;4.342;2023-04-01T04:51:52;10.20;99.90
34833;DHT22;55941;50.800;4.342;2023-04-01T04:54:18;10.10;99.90
34833;DHT22;55941;50.800;4.342;2023-04-01T04:56:44;10.10;99.90
34833;DHT22;55941;50.800;4.342;2023-04-01T04:59:09;10.00;99.90
34833;DHT22;55941;50.800;4.342;2023-04-01T05:01:35;10.00;99.90
34833;DHT22;55941;50.800;4.342;2023-04-01T05:04:01;10.00;99.90
34833;DHT22;55941;50.800;4.342;2023-04-01T05:06:26;10.10;99.90
34833;DHT22;55941;50.800;4.342;2023-04-01T05:08:55;10.10;99.90
34833;DHT22;55941;50.800;4.342;2023-04-01T05:11:23;10.00;99.90
34833;DHT22;55941;50.800;4.342;2023-04-01T05:13:51;10.00;99.90
34833;DHT22;55941;50.800;4.342;2023-04-01T05:16:19;10.10;99.90
34833;DHT22;55941;50.800;4.342;2023-04-01T05:18:46;9.90;99.90
34833;DHT22;55941;50.800;4.342;2023-04-01T05:21:13;9.90;99.90
34833;DHT22;55941;50.800;4.342;2023-04-01T05:23:39;9.90;99.90
34833;DHT22;55941;50.800;4.342;2023-04-01T05:26:07;9.90;99.90
34833;DHT22;55941;50.800;4.342;2023-04-01T05:28:33;10.00;99.90
34833;DHT22;55941;50.800;4.342;2023-04-01T05:31:00;10.00;99.90
34833;DHT22;55941;50.800;4.342;2023-04-01T05:33:27;10.10;99.90
34833;DHT22;55941;50.800;4.342;2023-04-01T05:35:54;10.00;99.90
34833;DHT22;55941;50.800;4.342;2023-04-01T05:38:20;10.00;99.90
34833;DHT22;55941;50.800;4.342;2023-04-01T05:40:46;10.00;99.90
34833;DHT22;55941;50.800;4.342;2023-04-01T05:43:12;10.10;99.90
34833;DHT22;55941;50.800;4.342;2023-04-01T05:45:38;10.00;99.90
34833;DHT22;55941;50.800;4.342;2023-04-01T05:48:04;9.90;99.90
34833;DHT22;55941;50.800;4.342;2023-04-01T05:50:30;10.00;99.90
34833;DHT22;55941;50.800;4.342;2023-04-01T05:52:56;10.00;99.90
34833;DHT22;55941;50.800;4.342;2023-04-01T05:55:22;10.00;99.90
34833;DHT22;55941;50.800;4.342;2023-04-01T05:57:48;10.10;99.90
34833;DHT22;55941;50.800;4.342;2023-04-01T06:00:16;9.80;99.90
34833;DHT22;55941;50.800;4.342;2023-04-01T06:02:42;9.90;99.90
34833;DHT22;55941;50.800;4.342;2023-04-01T06:05:21;9.90;99.90
34833;DHT22;55941;50.800;4.342;2023-04-01T06:07:48;9.90;99.90
34833;DHT22;55941;50.800;4.342;2023-04-01T06:10:17;10.00;99.90
34833;DHT22;55941;50.800;4.342;2023-04-01T06:15:53;9.90;99.90
34833;DHT22;55941;50.800;4.342;2023-04-01T06:19:03;10.10;99.90
34833;DHT22;55941;50.800;4.342;2023-04-01T06:21:44;10.00;99.90
34833;DHT22;55941;50.800;4.342;2023-04-01T06:30:07;10.00;99.90
34833;DHT22;55941;50.800;4.342;2023-04-01T06:32:52;10.00;99.90
34833;DHT22;55941;50.800;4.342;2023-04-01T06:35:31;10.00;99.90
34833;DHT22;55941;50.800;4.342;2023-04-01T06:41:28;9.90;99.90
34833;DHT22;55941;50.800;4.342;2023-04-01T06:44:27;10.00;99.90
34833;DHT22;55941;50.800;4.342;2023-04-01T06:47:18;9.90;99.90
34833;DHT22;55941;50.800;4.342;2023-04-01T06:50:00;9.90;99.90
34833;DHT22;55941;50.800;4.342;2023-04-01T06:52:34;10.00;99.90
34833;DHT22;55941;50.800;4.342;2023-04-01T06:57:39;10.00;99.90
34833;DHT22;55941;50.800;4.342;2023-04-01T07:00:27;10.00;99.90
34833;DHT22;55941;50.800;4.342;2023-04-01T07:03:06;10.00;99.90
34833;DHT22;55941;50.800;4.342;2023-04-01T07:05:35;9.90;99.90
34833;DHT22;55941;50.800;4.342;2023-04-01T07:08:04;9.90;99.90
34833;DHT22;55941;50.800;4.342;2023-04-01T07:10:54;9.90;99.90
34833;DHT22;55941;50.800;4.342;2023-04-01T07:13:24;10.00;99.90
34833;DHT22;55941;50.800;4.342;2023-04-01T07:18:54;10.10;99.90
34833;DHT22;55941;50.800;4.342;2023-04-01T07:21:41;10.20;99.90
34833;DHT22;55941;50.800;4.342;2023-04-01T07:24:20;10.20;99.90
34833;DHT22;55941;50.800;4.342;2023-04-01T07:26:48;10.20;99.90
34833;DHT22;55941;50.800;4.342;2023-04-01T07:29:18;10.10;99.90
34833;DHT22;55941;50.800;4.342;2023-04-01T07:37:28;10.10;99.90
34833;DHT22;55941;50.800;4.342;2023-04-01T07:46:03;10.20;99.90
34833;DHT22;55941;50.800;4.342;2023-04-01T07:48:35;10.20;99.90
34833;DHT22;55941;50.800;4.342;2023-04-01T07:51:15;10.20;99.90
34833;DHT22;55941;50.800;4.342;2023-04-01T07:53:53;10.30;99.90
34833;DHT22;55941;50.800;4.342;2023-04-01T07:59:33;10.30;99.90
34833;DHT22;55941;50.800;4.342;2023-04-01T08:07:51;10.20;99.90
34833;DHT22;55941;50.800;4.342;2023-04-01T08:15:53;10.30;99.90
34833;DHT22;55941;50.800;4.342;2023-04-01T08:18:37;10.30;99.90
34833;DHT22;55941;50.800;4.342;2023-04-01T08:21:20;10.30;99.90
34833;DHT22;55941;50.800;4.342;2023-04-01T08:23:49;10.30;99.90
34833;DHT22;55941;50.800;4.342;2023-04-01T08:26:32;10.30;99.90
34833;DHT22;55941;50.800;4.342;2023-04-01T08:32:08;10.40;99.90
34833;DHT22;55941;50.800;4.342;2023-04-01T08:35:06;10.40;99.90
34833;DHT22;55941;50.800;4.342;2023-04-01T08:37:36;10.30;99.90
34833;DHT22;55941;50.800;4.342;2023-04-01T08:43:02;10.30;99.90
34833;DHT22;55941;50.800;4.342;2023-04-01T08:48:47;10.30;99.90
34833;DHT22;55941;50.800;4.342;2023-04-01T09:00:19;10.30;99.90
34833;DHT22;55941;50.800;4.342;2023-04-01T09:08:41;10.30;99.90
34833;DHT22;55941;50.800;4.342;2023-04-01T09:14:23;10.20;99.90
34833;DHT22;55941;50.800;4.342;2023-04-01T09:45:27;10.60;99.90
34833;DHT22;55941;50.800;4.342;2023-04-01T10:01:39;10.80;99.90
34833;DHT22;55941;50.800;4.342;2023-04-01T10:04:14;10.80;99.90
34833;DHT22;55941;50.800;4.342;2023-04-01T10:18:13;11.20;99.90
34833;DHT22;55941;50.800;4.342;2023-04-01T10:37:48;11.00;99.90
34833;DHT22;55941;50.800;4.342;2023-04-01T10:40:35;11.00;99.90
34833;DHT22;55941;50.800;4.342;2023-04-01T10:48:53;11.10;99.90
34833;DHT22;55941;50.800;4.342;2023-04-01T10:51:54;11.20;99.90
34833;DHT22;55941;50.800;4.342;2023-04-01T11:11:53;11.40;99.90
34833;DHT22;55941;50.800;4.342;2023-04-01T11:17:38;11.30;99.90
34833;DHT22;55941;50.800;4.342;2023-04-01T11:37:48;11.50;99.90
34833;DHT22;55941;50.800;4.342;2023-04-01T11:45:49;11.40;99.90
34833;DHT22;55941;50.800;4.342;2023-04-01T11:59:46;11.40;99.90
34833;DHT22;55941;50.800;4.342;2023-04-01T12:02:29;11.40;99.90
34833;DHT22;55941;50.800;4.342;2023-04-01T12:24:46;11.20;99.90
34833;DHT22;55941;50.800;4.342;2023-04-01T12:48:08;11.00;99.90
34833;DHT22;55941;50.800;4.342;2023-04-01T12:51:11;10.90;99.90
34833;DHT22;55941;50.800;4.342;2023-04-01T12:56:47;10.90;99.90
34833;DHT22;55941;50.800;4.342;2023-04-01T12:59:47;11.00;99.90
34833;DHT22;55941;50.800;4.342;2023-04-01T13:10:50;10.80;99.90
34833;DHT22;55941;50.800;4.342;2023-04-01T13:16:24;10.70;99.90
34833;DHT22;55941;50.800;4.342;2023-04-01T13:19:03;10.70;99.90
34833;DHT22;55941;50.800;4.342;2023-04-01T13:29:38;10.80;99.90
34833;DHT22;55941;50.800;4.342;2023-04-01T13:43:01;10.90;99.90
34833;DHT22;55941;50.800;4.342;2023-04-01T13:48:32;11.00;99.90
34833;DHT22;55941;50.800;4.342;2023-04-01T14:08:06;10.60;99.90
34833;DHT22;55941;50.800;4.342;2023-04-01T14:11:29;10.60;99.90
34833;DHT22;55941;50.800;4.342;2023-04-01T14:25:03;10.80;99.90
34833;DHT22;55941;50.800;4.342;2023-04-01T14:27:44;10.90;99.90
34833;DHT22;55941;50.800;4.342;2023-04-01T14:30:20;10.90;99.90
34833;DHT22;55941;50.800;4.342;2023-04-01T14:49:43;10.80;99.90
34833;DHT22;55941;50.800;4.342;2023-04-01T14:54:48;11.00;99.90
34833;DHT22;55941;50.800;4.342;2023-04-01T14:57:23;10.90;99.90
34833;DHT22;55941;50.800;4.342;2023-04-01T15:05:31;11.10;99.90
34833;DHT22;55941;50.800;4.342;2023-04-01T15:48:52;10.70;99.90
34833;DHT22;55941;50.800;4.342;2023-04-01T15:51:48;10.80;99.90
34833;DHT22;55941;50.800;4.342;2023-04-01T15:54:23;10.60;99.90
34833;DHT22;55941;50.800;4.342;2023-04-01T16:05:55;10.70;99.90
34833;DHT22;55941;50.800;4.342;2023-04-01T16:11:31;10.50;99.90
34833;DHT22;55941;50.800;4.342;2023-04-01T16:17:01;10.40;99.90
34833;DHT22;55941;50.800;4.342;2023-04-01T16:22:40;10.40;99.90
34833;DHT22;55941;50.800;4.342;2023-04-01T16:42:19;10.40;99.90
34833;DHT22;55941;50.800;4.342;2023-04-01T16:44:54;10.40;99.90
34833;DHT22;55941;50.800;4.342;2023-04-01T16:47:27;10.30;99.90
34833;DHT22;55941;50.800;4.342;2023-04-01T16:50:13;10.30;99.90
34833;DHT22;55941;50.800;4.342;2023-04-01T16:52:58;10.20;99.90
34833;DHT22;55941;50.800;4.342;2023-04-01T16:55:52;10.20;99.90
34833;DHT22;55941;50.800;4.342;2023-04-01T16:58:41;10.30;99.90
34833;DHT22;55941;50.800;4.342;2023-04-01T17:01:13;10.30;99.90
34833;DHT22;55941;50.800;4.342;2023-04-01T17:03:45;10.40;99.90
34833;DHT22;55941;50.800;4.342;2023-04-01T17:15:22;10.50;99.90
34833;DHT22;55941;50.800;4.342;2023-04-01T17:18:08;10.40;99.90
34833;DHT22;55941;50.800;4.342;2023-04-01T17:20:42;10.30;99.90
34833;DHT22;55941;50.800;4.342;2023-04-01T17:40:40;10.20;99.90
34833;DHT22;55941;50.800;4.342;2023-04-01T17:43:32;10.30;99.90
34833;DHT22;55941;50.800;4.342;2023-04-01T17:50:02;10.20;99.90
34833;DHT22;55941;50.800;4.342;2023-04-01T18:05:37;10.10;99.90
34833;DHT22;55941;50.800;4.342;2023-04-01T18:08:20;10.20;99.90
34833;DHT22;55941;50.800;4.342;2023-04-01T18:11:10;10.10;99.90
34833;DHT22;55941;50.800;4.342;2023-04-01T18:16:50;10.10;99.90
34833;DHT22;55941;50.800;4.342;2023-04-01T18:22:42;10.20;99.90
34833;DHT22;55941;50.800;4.342;2023-04-01T18:25:35;10.20;99.90
34833;DHT22;55941;50.800;4.342;2023-04-01T18:28:22;10.30;99.90
34833;DHT22;55941;50.800;4.342;2023-04-01T18:38:56;10.30;99.90
34833;DHT22;55941;50.800;4.342;2023-04-01T18:41:35;10.20;99.90
34833;DHT22;55941;50.800;4.342;2023-04-01T18:44:25;10.20;99.90
34833;DHT22;55941;50.800;4.342;2023-04-01T18:50:24;10.10;99.90
34833;DHT22;55941;50.800;4.342;2023-04-01T18:53:08;10.00;99.90
34833;DHT22;55941;50.800;4.342;2023-04-01T18:55:40;10.00;99.90
34833;DHT22;55941;50.800;4.342;2023-04-01T18:58:25;10.00;99.90
34833;DHT22;55941;50.800;4.342;2023-04-01T19:01:12;10.00;99.90
34833;DHT22;55941;50.800;4.342;2023-04-01T19:06:41;10.00;99.90
34833;DHT22;55941;50.800;4.342;2023-04-01T19:09:30;10.10;99.90
34833;DHT22;55941;50.800;4.342;2023-04-01T19:12:25;10.00;99.90
34833;DHT22;55941;50.800;4.342;2023-04-01T19:20:41;10.00;99.90
34833;DHT22;55941;50.800;4.342;2023-04-01T19:28:50;9.80;99.90
34833;DHT22;55941;50.800;4.342;2023-04-01T19:37:04;9.90;99.90
34833;DHT22;55941;50.800;4.342;2023-04-01T19:40:20;9.90;99.90
34833;DHT22;55941;50.800;4.342;2023-04-01T19:43:18;10.00;99.90
34833;DHT22;55941;50.800;4.342;2023-04-01T19:45:52;9.90;99.90
34833;DHT22;55941;50.800;4.342;2023-04-01T19:51:34;9.90;99.90
34833;DHT22;55941;50.800;4.342;2023-04-01T19:57:09;10.00;99.90
34833;DHT22;55941;50.800;4.342;2023-04-01T20:00:06;9.90;99.90
34833;DHT22;55941;50.800;4.342;2023-04-01T20:05:31;10.00;99.90
34833;DHT22;55941;50.800;4.342;2023-04-01T20:11:10;9.90;99.90
34833;DHT22;55941;50.800;4.342;2023-04-01T20:16:14;9.80;99.90
34833;DHT22;55941;50.800;4.342;2023-04-01T20:21:27;9.90;99.90
34833;DHT22;55941;50.800;4.342;2023-04-01T20:26:44;9.70;99.90
34833;DHT22;55941;50.800;4.342;2023-04-01T20:29:38;9.80;99.90
34833;DHT22;55941;50.800;4.342;2023-04-01T20:32:32;9.90;99.90
34833;DHT22;55941;50.800;4.342;2023-04-01T20:35:17;9.90;99.90
34833;DHT22;55941;50.800;4.342;2023-04-01T20:37:57;9.90;99.90
34833;DHT22;55941;50.800;4.342;2023-04-01T20:40:34;9.90;99.90
34833;DHT22;55941;50.800;4.342;2023-04-01T20:45:58;9.90;99.90
34833;DHT22;55941;50.800;4.342;2023-04-01T20:51:04;10.00;99.90
34833;DHT22;55941;50.800;4.342;2023-04-01T20:54:04;10.00;99.90
34833;DHT22;55941;50.800;4.342;2023-04-01T21:02:12;10.20;99.90
34833;DHT22;55941;50.800;4.342;2023-04-01T21:18:21;10.00;99.90
34833;DHT22;55941;50.800;4.342;2023-04-01T21:44:30;10.00;99.90
34833;DHT22;55941;50.800;4.342;2023-04-01T21:50:05;10.10;99.90
34833;DHT22;55941;50.800;4.342;2023-04-01T21:56:09;10.20;99.90
34833;DHT22;55941;50.800;4.342;2023-04-01T22:06:40;10.20;99.90
34833;DHT22;55941;50.800;4.342;2023-04-01T22:17:27;10.30;99.90
34833;DHT22;55941;50.800;4.342;2023-04-01T22:25:42;10.40;99.90
34833;DHT22;55941;50.800;4.342;2023-04-01T22:28:19;10.30;99.90
34833;DHT22;55941;50.800;4.342;2023-04-01T22:30:52;10.50;99.90
34833;DHT22;55941;50.800;4.342;2023-04-01T22:44:28;10.40;99.90
34833;DHT22;55941;50.800;4.342;2023-04-01T22:50:17;10.40;99.90
34833;DHT22;55941;50.800;4.342;2023-04-01T22:52:45;10.50;99.90
34833;DHT22;55941;50.800;4.342;2023-04-01T22:55:25;10.50;99.90
34833;DHT22;55941;50.800;4.342;2023-04-01T22:58:08;10.40;99.90
34833;DHT22;55941;50.800;4.342;2023-04-01T23:00:36;10.50;99.90
34833;DHT22;55941;50.800;4.342;2023-04-01T23:03:22;10.50;99.90
34833;DHT22;55941;50.800;4.342;2023-04-01T23:05:54;10.50;99.90
34833;DHT22;55941;50.800;4.342;2023-04-01T23:13:57;10.30;99.90
34833;DHT22;55941;50.800;4.342;2023-04-01T23:16:36;10.50;99.90
34833;DHT22;55941;50.800;4.342;2023-04-01T23:21:44;10.40;99.90
34833;DHT22;55941;50.800;4.342;2023-04-01T23:24:23;10.30;99.90
34833;DHT22;55941;50.800;4.342;2023-04-01T23:27:03;10.30;99.90
34833;DHT22;55941;50.800;4.342;2023-04-01T23:29:35;10.30;99.90
34833;DHT22;55941;50.800;4.342;2023-04-01T23:32:03;10.40;99.90
34833;DHT22;55941;50.800;4.342;2023-04-01T23:34:35;10.40;99.90
34833;DHT22;55941;50.800;4.342;2023-04-01T23:37:10;10.40;99.90
34833;DHT22;55941;50.800;4.342;2023-04-01T23:39:45;10.50;99.90
34833;DHT22;55941;50.800;4.342;2023-04-01T23:44:48;10.30;99.90
34833;DHT22;55941;50.800;4.342;2023-04-01T23:47:26;10.30;99.90
34833;DHT22;55941;50.800;4.342;2023-04-01T23:50:00;10.30;99.90
34833;DHT22;55941;50.800;4.342;2023-04-01T23:52:31;10.20;99.90
34833;DHT22;55941;50.800;4.342;2023-04-01T23:57:38;10.20;99.90
